createdAt,value
2022-08-26T00:01:10.493Z,4.57
2022-08-26T00:03:37.201Z,4.25
2022-08-26T00:06:03.763Z,4.57
2022-08-26T00:08:30.327Z,4.50
2022-08-26T00:10:56.828Z,4.43
2022-08-26T00:13:26.373Z,4.05
2022-08-26T00:15:53.582Z,4.75
2022-08-26T00:18:22.560Z,4.30
2022-08-26T00:20:49.566Z,4.15
2022-08-26T00:23:17.726Z,4.15
2022-08-26T00:25:44.231Z,4.55
2022-08-26T00:28:11.084Z,4.50
2022-08-26T00:30:38.376Z,4.90
2022-08-26T00:33:06.174Z,4.70
2022-08-26T00:35:34.758Z,4.60
2022-08-26T00:38:02.863Z,4.63
2022-08-26T00:40:34.002Z,5.13
2022-08-26T00:43:00.905Z,4.53
2022-08-26T00:45:29.485Z,4.60
2022-08-26T00:48:01.877Z,4.50
2022-08-26T00:50:34.543Z,4.93
2022-08-26T00:53:02.266Z,4.50
2022-08-26T00:55:37.942Z,4.50
2022-08-26T00:58:05.993Z,4.72
2022-08-26T01:00:33.114Z,4.40
2022-08-26T01:03:01.856Z,4.65
2022-08-26T01:05:32.045Z,4.53
2022-08-26T01:07:58.562Z,4.53
2022-08-26T01:10:28.235Z,5.03
2022-08-26T01:13:00.836Z,4.72
2022-08-26T01:15:32.936Z,4.88
2022-08-26T01:18:00.092Z,5.03
2022-08-26T01:20:53.760Z,4.85
2022-08-26T01:23:28.205Z,4.70
2022-08-26T01:25:57.428Z,4.65
2022-08-26T01:28:28.424Z,4.30
2022-08-26T01:30:55.932Z,4.55
2022-08-26T01:33:40.025Z,6.05
2022-08-26T01:36:09.542Z,4.95
2022-08-26T01:38:36.059Z,5.28
2022-08-26T01:41:02.837Z,4.80
2022-08-26T01:43:47.469Z,5.32
2022-08-26T01:46:16.082Z,4.70
2022-08-26T01:48:43.911Z,4.60
2022-08-26T01:51:12.122Z,4.95
2022-08-26T01:53:39.857Z,4.70
2022-08-26T01:56:09.686Z,5.00
2022-08-26T01:58:42.771Z,4.03
2022-08-26T02:01:10.485Z,4.55
2022-08-26T02:03:57.043Z,5.00
2022-08-26T02:06:24.389Z,4.85
2022-08-26T02:08:54.795Z,4.90
2022-08-26T02:11:21.364Z,5.28
2022-08-26T02:13:57.897Z,4.78
2022-08-26T02:16:27.129Z,4.55
2022-08-26T02:18:54.292Z,4.72
2022-08-26T02:21:21.768Z,5.13
2022-08-26T02:23:52.371Z,4.97
2022-08-26T02:26:23.922Z,4.97
2022-08-26T02:28:59.335Z,5.05
2022-08-26T02:31:25.919Z,4.82
2022-08-26T02:33:52.623Z,5.15
2022-08-26T02:36:23.939Z,5.07
2022-08-26T02:38:55.209Z,5.15
2022-08-26T02:41:23.058Z,5.00
2022-08-26T02:43:49.743Z,4.60
2022-08-26T02:46:27.701Z,5.13
2022-08-26T02:48:56.259Z,4.97
2022-08-26T02:51:22.799Z,5.05
2022-08-26T02:53:49.890Z,5.07
2022-08-26T02:56:17.594Z,5.10
2022-08-26T02:58:44.131Z,4.97
2022-08-26T03:01:21.599Z,5.22
2022-08-26T03:03:48.364Z,4.63
2022-08-26T03:06:16.380Z,4.80
2022-08-26T03:08:43.243Z,4.90
2022-08-26T03:11:10.909Z,4.75
2022-08-26T03:13:38.439Z,5.03
2022-08-26T03:16:05.271Z,5.20
2022-08-26T03:18:31.911Z,4.32
2022-08-26T03:20:59.118Z,5.28
2022-08-26T03:23:26.033Z,5.03
2022-08-26T03:25:53.725Z,5.03
2022-08-26T03:28:20.264Z,5.10
2022-08-26T03:30:47.482Z,5.45
2022-08-26T03:33:14.565Z,5.07
2022-08-26T03:35:43.454Z,4.90
2022-08-26T03:38:10.812Z,5.05
2022-08-26T03:40:37.493Z,5.68
2022-08-26T03:43:05.462Z,5.00
2022-08-26T03:45:32.856Z,5.35
2022-08-26T03:48:00.156Z,5.38
2022-08-26T03:50:27.016Z,4.93
2022-08-26T03:52:54.651Z,5.47
2022-08-26T03:55:24.441Z,5.53
2022-08-26T03:57:51.598Z,5.68
2022-08-26T04:00:18.381Z,4.75
2022-08-26T04:02:46.728Z,5.43
2022-08-26T04:05:14.511Z,5.28
2022-08-26T04:07:42.727Z,5.03
2022-08-26T04:10:11.612Z,5.43
2022-08-26T04:12:38.650Z,5.80
2022-08-26T04:15:11.051Z,5.75
2022-08-26T04:17:37.553Z,5.10
2022-08-26T04:20:06.226Z,5.20
2022-08-26T04:22:33.924Z,5.72
2022-08-26T04:25:00.393Z,4.53
2022-08-26T04:27:27.060Z,5.05
2022-08-26T04:29:55.427Z,4.95
2022-08-26T04:32:22.559Z,4.95
2022-08-26T04:34:48.996Z,5.70
2022-08-26T04:37:16.336Z,5.63
2022-08-26T04:39:44.524Z,5.00
2022-08-26T04:42:12.550Z,5.85
2022-08-26T04:44:39.370Z,5.93
2022-08-26T04:47:06.114Z,5.80
2022-08-26T04:49:35.252Z,5.80
2022-08-26T04:52:02.556Z,5.93
2022-08-26T04:54:29.007Z,6.28
2022-08-26T04:56:55.742Z,5.80
2022-08-26T04:59:22.706Z,5.90
2022-08-26T05:01:52.811Z,5.97
2022-08-26T05:04:20.596Z,6.05
2022-08-26T05:06:48.322Z,5.70
2022-08-26T05:09:15.515Z,6.00
2022-08-26T05:11:42.041Z,5.90
2022-08-26T05:14:08.620Z,5.38
2022-08-26T05:16:35.199Z,5.85
2022-08-26T05:19:03.456Z,6.28
2022-08-26T05:21:30.156Z,7.18
2022-08-26T05:23:57.180Z,6.00
2022-08-26T05:26:27.504Z,5.80
2022-08-26T05:28:55.275Z,5.55
2022-08-26T05:31:28.231Z,5.88
2022-08-26T05:33:57.510Z,6.28
2022-08-26T05:36:27.125Z,6.28
2022-08-26T05:38:54.394Z,6.20
2022-08-26T05:41:24.755Z,5.70
2022-08-26T05:43:52.233Z,5.85
2022-08-26T05:46:18.979Z,5.70
2022-08-26T05:48:45.514Z,5.80
2022-08-26T05:51:14.121Z,5.88
2022-08-26T05:53:43.871Z,5.95
2022-08-26T05:56:24.656Z,5.18
2022-08-26T05:58:51.083Z,5.55
2022-08-26T06:01:20.258Z,5.72
2022-08-26T06:03:54.844Z,6.28
2022-08-26T06:06:29.959Z,6.38
2022-08-26T06:08:59.182Z,6.50
2022-08-26T06:11:27.552Z,5.43
2022-08-26T06:14:03.974Z,6.00
2022-08-26T06:16:31.974Z,5.97
2022-08-26T06:18:58.450Z,5.78
2022-08-26T06:21:30.133Z,6.10
2022-08-26T06:24:18.789Z,6.43
2022-08-26T06:26:50.931Z,5.43
2022-08-26T06:29:24.420Z,5.40
2022-08-26T06:31:52.006Z,5.93
2022-08-26T06:34:18.598Z,5.82
2022-08-26T06:36:45.309Z,5.53
2022-08-26T06:39:14.276Z,6.05
2022-08-26T06:41:44.883Z,5.53
2022-08-26T06:44:13.586Z,5.95
2022-08-26T06:46:41.398Z,5.20
2022-08-26T06:49:08.049Z,5.55
2022-08-26T06:51:37.300Z,5.30
2022-08-26T06:54:05.034Z,5.28
2022-08-26T06:56:39.816Z,5.18
2022-08-26T06:59:07.787Z,5.32
2022-08-26T07:01:38.061Z,5.30
2022-08-26T07:04:10.373Z,5.43
2022-08-26T07:06:40.487Z,5.38
2022-08-26T07:09:09.969Z,6.07
2022-08-26T07:11:37.940Z,5.05
2022-08-26T07:14:04.984Z,5.40
2022-08-26T07:16:31.553Z,5.63
2022-08-26T07:18:59.662Z,5.40
2022-08-26T07:21:27.837Z,4.60
2022-08-26T07:24:00.030Z,5.72
2022-08-26T07:26:29.469Z,5.43
2022-08-26T07:28:57.520Z,5.47
2022-08-26T07:31:27.801Z,5.35
2022-08-26T07:33:56.817Z,4.93
2022-08-26T07:36:24.467Z,4.90
2022-08-26T07:38:51.945Z,5.03
2022-08-26T07:41:20.441Z,5.35
2022-08-26T07:43:46.959Z,4.72
2022-08-26T07:46:18.436Z,4.72
2022-08-26T07:48:48.786Z,4.72
2022-08-26T07:51:16.731Z,5.18
2022-08-26T07:53:43.947Z,5.40
2022-08-26T07:56:14.651Z,4.93
2022-08-26T07:58:41.406Z,5.25
2022-08-26T08:01:09.185Z,5.43
2022-08-26T08:03:35.766Z,5.72
2022-08-26T08:06:04.546Z,4.93
2022-08-26T08:08:32.955Z,4.78
2022-08-26T08:10:59.690Z,5.55
2022-08-26T08:13:26.358Z,5.03
2022-08-26T08:15:52.872Z,4.72
2022-08-26T08:18:20.579Z,4.47
2022-08-26T08:20:59.238Z,4.68
2022-08-26T08:23:32.053Z,5.53
2022-08-26T08:26:03.091Z,5.00
2022-08-26T08:28:29.802Z,5.05
2022-08-26T08:30:56.423Z,5.13
2022-08-26T08:33:23.185Z,5.18
2022-08-26T08:35:49.662Z,4.97
2022-08-26T08:38:16.697Z,5.20
2022-08-26T08:40:45.492Z,5.20
2022-08-26T08:43:18.429Z,5.30
2022-08-26T08:45:49.559Z,5.10
2022-08-26T08:48:20.649Z,5.32
2022-08-26T08:50:56.543Z,4.90
2022-08-26T08:53:41.596Z,4.95
2022-08-26T08:56:45.910Z,4.97
2022-08-26T08:59:25.470Z,5.00
2022-08-26T09:01:52.586Z,4.97
2022-08-26T09:05:02.157Z,4.95
2022-08-26T09:07:41.062Z,5.07
2022-08-26T09:10:19.875Z,5.68
2022-08-26T09:12:47.659Z,5.38
2022-08-26T09:15:20.978Z,5.20
2022-08-26T09:17:59.868Z,5.30
2022-08-26T09:21:00.453Z,4.97
2022-08-26T09:23:27.121Z,4.90
2022-08-26T09:26:03.354Z,5.07
2022-08-26T09:28:31.545Z,5.22
2022-08-26T09:31:01.405Z,4.90
2022-08-26T09:33:30.768Z,5.57
2022-08-26T09:36:24.710Z,5.43
2022-08-26T09:38:52.590Z,5.30
2022-08-26T09:41:31.756Z,5.43
2022-08-26T09:44:04.436Z,5.30
2022-08-26T09:46:31.737Z,5.18
2022-08-26T09:49:47.308Z,5.78
2022-08-26T09:52:22.382Z,5.53
2022-08-26T09:55:09.570Z,5.57
2022-08-26T09:57:45.641Z,5.38
2022-08-26T10:00:55.452Z,5.70
2022-08-26T10:03:33.582Z,5.60
2022-08-26T10:06:06.751Z,6.78
2022-08-26T10:08:37.478Z,5.60
2022-08-26T10:11:12.077Z,5.45
2022-08-26T10:13:42.228Z,5.88
2022-08-26T10:16:22.377Z,5.93
2022-08-26T10:18:59.897Z,5.47
2022-08-26T10:21:30.218Z,5.90
2022-08-26T10:23:59.204Z,5.93
2022-08-26T10:26:49.014Z,6.18
2022-08-26T10:29:26.203Z,6.30
2022-08-26T10:32:03.707Z,6.43
2022-08-26T10:34:32.266Z,6.03
2022-08-26T10:37:15.066Z,6.30
2022-08-26T10:40:04.621Z,6.45
2022-08-26T10:42:45.650Z,6.57
2022-08-26T10:45:15.124Z,6.00
2022-08-26T10:47:48.905Z,6.72
2022-08-26T10:50:18.184Z,6.95
2022-08-26T10:52:51.274Z,6.88
2022-08-26T10:55:34.982Z,7.05
2022-08-26T10:58:26.583Z,7.80
2022-08-26T11:01:31.535Z,8.10
2022-08-26T11:03:58.656Z,8.30
2022-08-26T11:06:28.925Z,8.60
2022-08-26T11:08:57.427Z,7.82
2022-08-26T11:11:42.110Z,8.82
2022-08-26T11:14:29.113Z,8.93
2022-08-26T11:16:57.430Z,9.48
2022-08-26T11:19:45.336Z,9.07
2022-08-26T11:22:38.117Z,10.05
2022-08-26T11:25:15.770Z,9.70
2022-08-26T11:27:54.285Z,9.30
2022-08-26T11:30:20.674Z,10.93
2022-08-26T11:32:54.952Z,10.73
2022-08-26T11:35:21.734Z,13.50
2022-08-26T11:38:02.057Z,12.18
2022-08-26T11:40:33.809Z,11.68
2022-08-26T11:43:05.666Z,10.90
2022-08-26T11:45:37.956Z,11.05
2022-08-26T11:48:22.575Z,11.23
2022-08-26T11:50:54.443Z,11.65
2022-08-26T11:53:22.959Z,10.82
2022-08-26T11:55:50.549Z,11.02
2022-08-26T11:58:17.433Z,10.75
2022-08-26T12:00:47.624Z,11.10
2022-08-26T12:03:20.382Z,11.32
2022-08-26T12:05:52.032Z,10.30
2022-08-26T12:08:22.058Z,10.07
2022-08-26T12:10:49.025Z,10.35
2022-08-26T12:13:23.993Z,10.18
2022-08-26T12:15:55.737Z,10.15
2022-08-26T12:18:29.015Z,10.23
2022-08-26T12:20:59.231Z,10.73
2022-08-26T12:23:46.819Z,9.68
2022-08-26T12:26:24.968Z,9.82
2022-08-26T12:29:02.305Z,9.93
2022-08-26T12:31:43.663Z,9.88
2022-08-26T12:34:17.433Z,9.68
2022-08-26T12:36:46.629Z,9.23
2022-08-26T12:39:16.320Z,8.07
2022-08-26T12:41:49.365Z,8.50
2022-08-26T12:44:53.186Z,8.13
2022-08-26T12:47:42.365Z,7.55
2022-08-26T12:50:12.141Z,8.02
2022-08-26T12:52:56.821Z,6.82
2022-08-26T12:55:24.676Z,6.50
2022-08-26T12:58:29.825Z,6.45
2022-08-26T13:01:06.332Z,6.30
2022-08-26T13:03:40.189Z,6.20
2022-08-26T13:06:29.577Z,5.78
2022-08-26T13:09:00.551Z,5.70
2022-08-26T13:11:52.819Z,5.65
2022-08-26T13:14:24.167Z,5.78
2022-08-26T13:16:51.615Z,5.38
2022-08-26T13:19:21.851Z,6.05
2022-08-26T13:21:53.766Z,5.07
2022-08-26T13:24:40.600Z,5.45
2022-08-26T13:27:09.954Z,5.35
2022-08-26T13:29:36.529Z,5.47
2022-08-26T17:28:16.096Z,3.72
2022-08-26T17:30:42.801Z,3.75
2022-08-26T17:33:10.647Z,3.38
2022-08-26T17:35:50.032Z,3.55
2022-08-26T17:38:16.634Z,3.50
2022-08-26T17:40:43.123Z,4.10
2022-08-26T17:43:12.312Z,3.70
2022-08-26T17:45:43.517Z,4.10
2022-08-26T17:48:11.277Z,4.07
2022-08-26T17:50:42.370Z,4.22
2022-08-26T17:53:18.441Z,4.13
2022-08-26T17:55:45.859Z,4.10
2022-08-26T17:58:14.812Z,4.20
2022-08-26T18:00:49.401Z,4.05
2022-08-26T18:03:19.155Z,4.05
2022-08-26T18:05:51.045Z,4.30
2022-08-26T18:08:17.711Z,4.20
2022-08-26T18:10:44.910Z,4.60
2022-08-26T18:13:12.919Z,4.68
2022-08-26T18:15:40.055Z,5.50
2022-08-26T18:18:15.571Z,7.00
2022-08-26T18:20:44.159Z,5.63
2022-08-26T18:23:14.476Z,6.70
2022-08-26T18:25:43.774Z,5.72
2022-08-26T18:28:13.211Z,5.50
2022-08-26T18:30:42.539Z,5.35
2022-08-26T18:33:14.622Z,6.65
2022-08-26T18:35:45.041Z,8.05
2022-08-26T18:38:15.499Z,7.90
2022-08-26T20:30:04.844Z,5.70
2022-08-26T20:32:39.524Z,6.30
2022-08-26T20:35:40.534Z,6.38
2022-08-26T20:38:28.645Z,6.78
2022-08-26T20:41:00.484Z,7.07
2022-08-26T20:43:49.038Z,7.03
2022-08-26T20:58:13.291Z,6.03
2022-08-26T22:00:41.282Z,6.50
2022-08-26T22:03:57.087Z,6.90
2022-08-26T22:10:14.054Z,6.88
2022-08-26T22:20:25.981Z,7.90
2022-08-26T22:27:13.902Z,7.15
2022-08-26T22:33:28.019Z,7.45
2022-08-26T22:39:39.059Z,8.10
